createdAt,value
2023-07-30T00:01:43.414Z,17.14
2023-07-30T00:04:13.120Z,17.12
2023-07-30T00:06:42.955Z,17.08
2023-07-30T00:09:12.802Z,17.08
2023-07-30T00:11:42.640Z,17.05
2023-07-30T00:14:12.242Z,17.07
2023-07-30T00:16:42.085Z,16.90
2023-07-30T00:19:11.915Z,16.95
2023-07-30T00:21:43.465Z,16.78
2023-07-30T00:24:13.241Z,16.65
2023-07-30T00:26:43.152Z,16.72
2023-07-30T00:29:13.067Z,16.81
2023-07-30T00:31:43.043Z,16.63
2023-07-30T00:34:12.948Z,16.68
2023-07-30T00:36:42.803Z,16.82
2023-07-30T00:39:12.622Z,16.60
2023-07-30T00:41:42.474Z,16.50
2023-07-30T00:44:12.331Z,16.77
2023-07-30T00:46:42.956Z,16.59
2023-07-30T00:49:13.303Z,16.59
2023-07-30T00:51:44.498Z,16.55
2023-07-30T00:54:15.029Z,16.63
2023-07-30T00:56:47.898Z,16.64
2023-07-30T00:59:17.770Z,16.78
2023-07-30T01:01:48.827Z,16.63
2023-07-30T01:04:19.013Z,16.52
2023-07-30T01:06:48.978Z,16.38
2023-07-30T01:09:18.955Z,16.39
2023-07-30T01:11:49.934Z,16.45
2023-07-30T01:14:22.119Z,16.38
2023-07-30T01:16:52.020Z,16.36
2023-07-30T01:19:21.886Z,16.33
2023-07-30T01:21:51.545Z,16.22
2023-07-30T01:24:21.097Z,16.36
2023-07-30T01:26:53.998Z,16.46
2023-07-30T01:29:52.735Z,16.29
2023-07-30T01:32:24.662Z,16.31
2023-07-30T01:34:59.899Z,16.16
2023-07-30T01:37:31.437Z,16.16
2023-07-30T01:40:01.995Z,15.99
2023-07-30T01:42:32.575Z,15.95
2023-07-30T01:45:02.416Z,15.95
2023-07-30T01:47:32.333Z,16.05
2023-07-30T01:50:02.351Z,15.93
2023-07-30T01:52:32.278Z,15.97
2023-07-30T01:55:02.263Z,15.87
2023-07-30T01:57:32.112Z,15.94
2023-07-30T02:00:02.020Z,15.95
2023-07-30T02:05:20.795Z,16.09
2023-07-30T02:07:50.650Z,15.96
2023-07-30T02:10:20.208Z,15.92
2023-07-30T02:12:50.062Z,15.97
2023-07-30T02:15:19.912Z,16.18
2023-07-30T02:17:49.795Z,16.08
2023-07-30T02:20:19.574Z,16.04
2023-07-30T02:22:49.221Z,16.21
2023-07-30T02:25:19.999Z,16.04
2023-07-30T02:27:49.863Z,16.07
2023-07-30T02:30:19.759Z,16.08
2023-07-30T02:32:49.682Z,16.06
2023-07-30T02:35:19.577Z,16.25
2023-07-30T02:37:51.952Z,16.17
2023-07-30T02:40:21.310Z,16.14
2023-07-30T02:42:51.207Z,16.20
2023-07-30T02:45:21.082Z,16.43
2023-07-30T02:47:50.944Z,16.37
2023-07-30T02:50:21.450Z,16.36
2023-07-30T02:52:51.737Z,16.42
2023-07-30T02:55:21.761Z,16.42
2023-07-30T02:57:51.590Z,16.41
2023-07-30T03:00:21.540Z,16.41
2023-07-30T03:02:51.931Z,16.59
2023-07-30T03:05:21.858Z,16.58
2023-07-30T03:07:51.454Z,16.54
2023-07-30T03:10:21.340Z,16.44
2023-07-30T03:12:51.172Z,16.50
2023-07-30T03:15:20.893Z,16.37
2023-07-30T03:17:50.756Z,16.37
2023-07-30T03:20:20.575Z,16.31
2023-07-30T03:22:50.539Z,16.22
2023-07-30T03:25:20.087Z,16.15
2023-07-30T03:27:51.349Z,16.16
2023-07-30T03:30:21.357Z,16.31
2023-07-30T03:32:52.105Z,16.13
2023-07-30T03:35:22.040Z,16.13
2023-07-30T03:37:53.402Z,16.22
2023-07-30T03:40:23.015Z,16.07
2023-07-30T03:42:54.579Z,16.24
2023-07-30T03:45:24.353Z,16.13
2023-07-30T03:47:54.291Z,16.30
2023-07-30T03:50:24.174Z,16.35
2023-07-30T03:52:54.089Z,16.43
2023-07-30T03:55:23.926Z,16.49
2023-07-30T03:57:54.133Z,16.69
2023-07-30T04:00:24.135Z,16.69
2023-07-30T04:02:54.052Z,16.71
2023-07-30T04:05:23.909Z,16.61
2023-07-30T04:07:53.806Z,16.75
2023-07-30T04:10:23.647Z,16.69
2023-07-30T04:12:53.217Z,16.69
2023-07-30T04:15:22.776Z,16.82
2023-07-30T04:17:54.233Z,16.72
2023-07-30T04:20:24.257Z,16.77
2023-07-30T04:22:54.267Z,16.72
2023-07-30T04:25:24.136Z,16.72
2023-07-30T04:27:54.100Z,16.73
2023-07-30T04:30:23.701Z,16.56
2023-07-30T04:32:53.886Z,16.94
2023-07-30T04:35:23.710Z,16.70
2023-07-30T04:37:53.794Z,16.76
2023-07-30T04:40:23.647Z,16.80
2023-07-30T04:42:53.498Z,16.94
2023-07-30T04:45:23.691Z,16.86
2023-07-30T04:47:54.364Z,16.86
2023-07-30T04:50:24.424Z,16.73
2023-07-30T04:52:54.344Z,17.07
2023-07-30T04:55:24.178Z,17.17
2023-07-30T04:57:53.843Z,16.95
2023-07-30T05:00:23.521Z,17.41
2023-07-30T05:02:53.989Z,16.86
2023-07-30T05:05:23.958Z,16.76
2023-07-30T05:07:53.581Z,17.08
2023-07-30T05:10:23.405Z,17.18
2023-07-30T05:12:53.277Z,17.09
2023-07-30T05:15:23.160Z,16.96
2023-07-30T05:17:53.143Z,17.15
2023-07-30T05:20:23.020Z,16.89
2023-07-30T05:22:52.882Z,17.07
2023-07-30T05:25:22.418Z,17.46
2023-07-30T05:27:52.625Z,17.38
2023-07-30T05:30:22.329Z,17.45
2023-07-30T05:32:52.305Z,17.45
2023-07-30T05:35:23.264Z,17.59
2023-07-30T05:37:54.222Z,17.74
2023-07-30T05:40:24.324Z,17.29
2023-07-30T05:42:54.166Z,17.22
2023-07-30T05:45:24.106Z,17.16
2023-07-30T05:47:54.223Z,17.70
2023-07-30T05:50:24.264Z,17.76
2023-07-30T05:52:54.101Z,17.85
2023-07-30T05:55:23.969Z,17.79
2023-07-30T05:57:54.505Z,17.63
2023-07-30T06:00:25.177Z,17.62
2023-07-30T06:02:55.087Z,17.34
2023-07-30T06:05:24.971Z,17.78
2023-07-30T06:07:56.842Z,17.88
2023-07-30T06:10:26.003Z,18.14
2023-07-30T06:12:55.860Z,18.17
2023-07-30T06:15:25.698Z,18.02
2023-07-30T06:17:55.900Z,18.11
2023-07-30T06:20:25.735Z,18.23
2023-07-30T06:22:55.933Z,18.23
2023-07-30T06:25:25.516Z,18.24
2023-07-30T06:27:57.160Z,18.05
2023-07-30T06:30:26.928Z,18.08
2023-07-30T06:32:56.833Z,18.53
2023-07-30T06:35:26.689Z,18.52
2023-07-30T06:37:56.849Z,18.59
2023-07-30T06:40:26.456Z,18.38
2023-07-30T06:42:56.282Z,18.55
2023-07-30T06:45:25.893Z,18.81
2023-07-30T06:47:55.819Z,18.61
2023-07-30T06:50:25.377Z,18.87
2023-07-30T06:52:55.241Z,18.54
2023-07-30T06:55:25.088Z,18.74
2023-07-30T06:57:54.961Z,18.54
2023-07-30T07:00:24.512Z,18.88
2023-07-30T07:02:54.210Z,19.29
2023-07-30T07:05:24.439Z,19.17
2023-07-30T07:07:54.285Z,19.22
2023-07-30T07:10:24.381Z,19.26
2023-07-30T07:12:54.226Z,19.09
2023-07-30T07:15:23.783Z,18.85
2023-07-30T07:17:53.941Z,19.20
2023-07-30T07:20:23.789Z,19.07
2023-07-30T07:22:53.623Z,19.63
2023-07-30T07:25:23.444Z,19.85
2023-07-30T07:27:53.454Z,19.77
2023-07-30T07:30:23.145Z,19.49
2023-07-30T07:32:57.446Z,19.21
2023-07-30T07:35:27.402Z,19.79
2023-07-30T07:37:57.615Z,19.58
2023-07-30T07:40:27.231Z,19.59
2023-07-30T07:42:57.631Z,19.47
2023-07-30T07:45:27.468Z,19.66
2023-07-30T07:47:57.351Z,19.89
2023-07-30T07:50:27.204Z,19.77
2023-07-30T07:52:57.087Z,20.04
2023-07-30T07:55:26.978Z,19.75
2023-07-30T07:57:56.980Z,20.14
2023-07-30T08:00:26.813Z,19.97
2023-07-30T08:02:56.684Z,20.16
2023-07-30T08:05:26.871Z,20.10
2023-07-30T08:07:57.022Z,20.11
2023-07-30T08:10:26.933Z,19.92
2023-07-30T08:12:56.766Z,20.04
2023-07-30T08:15:26.625Z,19.60
2023-07-30T08:17:56.508Z,19.90
2023-07-30T08:20:26.718Z,19.78
2023-07-30T08:22:56.875Z,19.88
2023-07-30T08:25:26.439Z,19.88
2023-07-30T08:27:56.368Z,20.26
2023-07-30T08:30:26.197Z,20.25
2023-07-30T08:32:56.209Z,20.16
2023-07-30T08:35:25.744Z,20.43
2023-07-30T08:37:56.270Z,20.61
2023-07-30T08:40:26.655Z,20.70
2023-07-30T08:42:56.665Z,20.20
2023-07-30T08:45:26.510Z,20.18
2023-07-30T08:47:56.519Z,20.56
2023-07-30T08:50:27.401Z,20.63
2023-07-30T08:52:59.456Z,20.75
2023-07-30T08:55:31.147Z,20.77
2023-07-30T08:58:06.006Z,20.41
2023-07-30T09:00:38.895Z,20.46
2023-07-30T09:03:10.568Z,20.54
2023-07-30T09:05:40.894Z,20.07
2023-07-30T09:08:12.333Z,20.19
2023-07-30T09:10:41.967Z,20.52
2023-07-30T09:13:11.808Z,20.85
2023-07-30T09:15:42.613Z,20.66
2023-07-30T09:18:12.321Z,20.41
2023-07-30T09:20:43.978Z,20.33
2023-07-30T09:23:14.147Z,20.67
2023-07-30T09:25:44.113Z,20.93
2023-07-30T09:28:14.014Z,21.15
2023-07-30T09:30:43.875Z,21.17
2023-07-30T09:33:16.682Z,21.42
2023-07-30T09:35:46.677Z,21.35
2023-07-30T09:38:16.225Z,21.37
2023-07-30T09:40:46.245Z,21.35
2023-07-30T09:43:16.252Z,21.73
2023-07-30T09:45:49.026Z,21.23
2023-07-30T09:48:18.982Z,21.02
2023-07-30T09:50:48.676Z,20.89
2023-07-30T09:53:19.319Z,20.91
2023-07-30T09:55:49.202Z,20.79
2023-07-30T09:58:19.425Z,20.96
2023-07-30T10:00:51.054Z,21.09
2023-07-30T10:03:21.169Z,21.08
2023-07-30T10:05:52.898Z,20.74
2023-07-30T10:08:25.852Z,20.87
2023-07-30T10:10:57.701Z,20.85
2023-07-30T10:13:29.828Z,20.76
2023-07-30T10:16:00.138Z,21.18
2023-07-30T10:18:41.902Z,21.19
2023-07-30T10:21:13.811Z,20.37
2023-07-30T10:23:54.075Z,20.08
2023-07-30T10:26:32.387Z,20.49
2023-07-30T10:29:23.825Z,20.33
2023-07-30T10:31:57.883Z,20.20
2023-07-30T10:34:48.277Z,19.89
2023-07-30T10:37:24.725Z,20.24
2023-07-30T10:39:55.536Z,20.59
2023-07-30T10:42:25.369Z,20.87
2023-07-30T10:44:56.759Z,21.07
2023-07-30T10:47:36.764Z,21.04
2023-07-30T10:50:05.167Z,21.04
2023-07-30T10:52:36.549Z,20.90
2023-07-30T10:55:08.555Z,21.07
2023-07-30T10:57:40.112Z,21.14
2023-07-30T11:00:12.717Z,21.71
2023-07-30T11:02:42.685Z,21.42
2023-07-30T11:05:16.415Z,20.91
2023-07-30T11:07:54.179Z,21.33
2023-07-30T11:10:24.066Z,21.86
2023-07-30T11:12:53.980Z,21.86
2023-07-30T11:15:24.040Z,22.60
2023-07-30T11:17:58.071Z,22.50
2023-07-30T11:20:31.234Z,22.83
2023-07-30T11:23:01.087Z,23.58
2023-07-30T11:25:30.912Z,23.41
2023-07-30T11:28:00.864Z,23.38
2023-07-30T11:30:31.451Z,23.61
2023-07-30T11:33:01.701Z,23.95
2023-07-30T11:35:31.860Z,24.01
2023-07-30T11:38:01.849Z,24.05
2023-07-30T11:40:32.095Z,24.30
2023-07-30T11:43:02.034Z,24.23
2023-07-30T11:45:31.667Z,23.22
2023-07-30T11:48:12.313Z,23.22
2023-07-30T11:50:48.860Z,23.27
2023-07-30T11:53:20.536Z,22.97
2023-07-30T11:55:50.426Z,22.67
2023-07-30T11:58:20.098Z,22.65
2023-07-30T12:00:50.401Z,22.65
2023-07-30T12:03:20.266Z,23.68
2023-07-30T12:05:51.725Z,23.98
2023-07-30T12:08:24.613Z,24.75
2023-07-30T12:10:56.086Z,24.70
2023-07-30T12:13:26.886Z,24.53
2023-07-30T12:15:58.222Z,24.72
2023-07-30T12:18:30.115Z,24.83
2023-07-30T12:20:59.916Z,24.26
2023-07-30T12:23:29.740Z,23.26
2023-07-30T12:25:59.654Z,23.26
2023-07-30T12:28:29.257Z,23.76
2023-07-30T12:30:59.435Z,23.55
2023-07-30T12:33:29.336Z,23.55
2023-07-30T12:35:59.166Z,23.60
2023-07-30T12:38:29.994Z,23.48
2023-07-30T12:41:00.001Z,23.72
2023-07-30T12:43:29.827Z,23.55
2023-07-30T12:45:59.718Z,23.14
2023-07-30T12:48:29.284Z,23.06
2023-07-30T12:50:59.671Z,23.64
2023-07-30T12:53:29.816Z,23.20
2023-07-30T12:55:59.638Z,23.72
2023-07-30T12:58:29.889Z,23.46
2023-07-30T13:01:00.085Z,23.46
2023-07-30T13:03:30.058Z,23.62
2023-07-30T13:06:00.387Z,23.93
2023-07-30T13:08:30.235Z,23.82
2023-07-30T13:11:00.074Z,23.70
2023-07-30T13:13:29.922Z,23.95
2023-07-30T13:16:02.167Z,24.14
2023-07-30T13:18:32.043Z,24.14
2023-07-30T13:21:01.891Z,24.16
2023-07-30T13:23:32.877Z,24.94
2023-07-30T13:26:04.097Z,24.87
2023-07-30T13:28:33.925Z,24.22
2023-07-30T13:31:04.253Z,23.57
2023-07-30T13:33:34.447Z,23.02
2023-07-30T13:36:07.313Z,22.69
2023-07-30T13:38:37.150Z,23.26
2023-07-30T13:41:07.933Z,23.80
2023-07-30T13:43:37.809Z,23.43
2023-07-30T13:46:09.895Z,23.66
2023-07-30T13:48:39.752Z,23.36
2023-07-30T13:51:09.938Z,23.41
2023-07-30T13:53:41.394Z,22.71
2023-07-30T13:56:11.780Z,22.70
2023-07-30T13:58:41.695Z,23.02
2023-07-30T14:01:11.618Z,22.77
2023-07-30T14:03:41.445Z,23.25
2023-07-30T14:06:11.282Z,23.64
2023-07-30T14:08:41.298Z,23.91
2023-07-30T14:11:11.392Z,24.08
2023-07-30T14:13:41.909Z,24.11
2023-07-30T14:16:11.729Z,23.39
2023-07-30T14:18:42.023Z,23.23
2023-07-30T14:21:12.539Z,23.18
2023-07-30T14:23:42.353Z,23.32
2023-07-30T14:26:12.206Z,23.22
2023-07-30T14:28:42.651Z,23.85
2023-07-30T14:31:13.286Z,24.14
2023-07-30T14:33:43.134Z,24.27
2023-07-30T14:36:13.199Z,24.13
2023-07-30T14:38:43.026Z,24.34
2023-07-30T14:41:13.329Z,24.46
2023-07-30T14:43:43.201Z,24.28
2023-07-30T14:46:15.009Z,24.26
2023-07-30T14:48:45.067Z,24.16
2023-07-30T14:51:14.992Z,24.00
2023-07-30T14:53:44.897Z,24.02
2023-07-30T14:56:14.449Z,23.60
2023-07-30T14:58:44.253Z,23.51
2023-07-30T15:01:14.159Z,23.38
2023-07-30T15:03:43.844Z,23.84
2023-07-30T15:06:13.507Z,23.38
2023-07-30T15:08:43.330Z,23.55
2023-07-30T15:11:14.840Z,23.13
2023-07-30T15:13:44.670Z,22.57
2023-07-30T15:16:14.543Z,22.26
2023-07-30T15:18:44.880Z,22.11
2023-07-30T15:21:15.059Z,22.32
2023-07-30T15:23:45.714Z,22.38
2023-07-30T15:26:16.557Z,22.38
2023-07-30T15:28:46.431Z,22.14
2023-07-30T15:31:16.474Z,22.14
2023-07-30T15:33:46.317Z,22.16
2023-07-30T15:36:16.186Z,22.61
2023-07-30T15:38:46.008Z,22.51
2023-07-30T15:41:15.856Z,22.24
2023-07-30T15:43:45.715Z,22.64
2023-07-30T15:46:15.912Z,22.64
2023-07-30T15:48:45.832Z,22.92
2023-07-30T15:51:15.381Z,22.99
2023-07-30T15:53:45.977Z,23.47
2023-07-30T15:56:16.123Z,23.66
2023-07-30T15:58:45.985Z,23.77
2023-07-30T16:01:15.874Z,23.65
2023-07-30T16:03:45.758Z,23.20
2023-07-30T16:06:15.486Z,23.25
2023-07-30T16:08:45.348Z,23.36
2023-07-30T16:11:16.067Z,23.42
2023-07-30T16:13:45.920Z,22.93
2023-07-30T16:16:18.528Z,22.52
2023-07-30T16:18:49.701Z,22.52
2023-07-30T16:21:20.004Z,23.37
2023-07-30T16:23:49.675Z,22.62
2023-07-30T16:26:19.348Z,22.62
2023-07-30T16:28:49.185Z,22.41
2023-07-30T16:31:19.100Z,22.72
2023-07-30T16:33:49.121Z,22.83
2023-07-30T16:36:19.329Z,22.80
2023-07-30T16:38:49.274Z,22.59
2023-07-30T16:41:19.089Z,22.37
2023-07-30T16:43:48.940Z,22.27
2023-07-30T16:46:18.560Z,22.43
2023-07-30T16:48:48.702Z,22.30
2023-07-30T16:51:18.870Z,22.36
2023-07-30T16:53:48.704Z,22.23
2023-07-30T16:56:18.900Z,22.20
2023-07-30T16:58:48.756Z,21.88
2023-07-30T17:01:20.368Z,21.63
2023-07-30T17:03:50.224Z,21.75
2023-07-30T17:06:19.792Z,21.70
2023-07-30T17:08:49.628Z,21.76
2023-07-30T17:11:19.481Z,21.91
2023-07-30T17:13:49.314Z,21.71
2023-07-30T17:16:19.209Z,21.53
2023-07-30T17:18:50.714Z,21.28
2023-07-30T17:21:20.874Z,21.30
2023-07-30T17:23:51.164Z,21.28
2023-07-30T17:26:21.404Z,21.17
2023-07-30T17:28:51.222Z,21.16
2023-07-30T17:31:21.105Z,20.94
2023-07-30T17:33:51.248Z,20.51
2023-07-30T17:36:21.159Z,20.67
2023-07-30T17:38:51.016Z,20.31
2023-07-30T17:41:21.150Z,20.26
2023-07-30T17:43:50.994Z,20.01
2023-07-30T17:46:22.132Z,19.97
2023-07-30T17:48:52.211Z,19.28
2023-07-30T17:51:22.121Z,19.28
2023-07-30T17:53:53.831Z,19.37
2023-07-30T17:56:23.426Z,19.34
2023-07-30T17:58:53.290Z,19.08
2023-07-30T18:01:23.421Z,19.44
2023-07-30T18:03:55.161Z,19.17
2023-07-30T18:06:25.137Z,19.14
2023-07-30T18:08:54.955Z,19.21
2023-07-30T18:11:25.935Z,19.02
2023-07-30T18:13:55.765Z,18.94
2023-07-30T18:16:25.654Z,19.19
2023-07-30T18:18:55.559Z,19.19
2023-07-30T18:21:25.380Z,19.29
2023-07-30T18:23:55.236Z,19.29
2023-07-30T18:26:25.232Z,19.27
2023-07-30T18:28:55.543Z,18.87
2023-07-30T18:31:25.410Z,18.83
2023-07-30T18:33:55.043Z,18.83
2023-07-30T18:36:24.757Z,19.12
2023-07-30T18:38:54.894Z,19.04
2023-07-30T18:41:24.729Z,18.65
2023-07-30T18:43:54.639Z,18.71
2023-07-30T18:46:24.656Z,18.57
2023-07-30T18:48:55.794Z,18.43
2023-07-30T18:51:26.898Z,18.22
2023-07-30T18:53:56.787Z,18.27
2023-07-30T18:56:26.342Z,18.74
2023-07-30T18:58:56.257Z,18.90
2023-07-30T19:01:26.826Z,18.36
2023-07-30T19:03:56.669Z,18.27
2023-07-30T19:06:28.293Z,18.34
2023-07-30T19:08:57.928Z,18.46
2023-07-30T19:11:27.764Z,18.16
2023-07-30T19:13:57.641Z,18.16
2023-07-30T19:16:27.235Z,18.21
2023-07-30T19:18:57.152Z,18.53
2023-07-30T19:21:27.166Z,18.44
2023-07-30T19:23:56.985Z,18.23
2023-07-30T19:26:26.866Z,18.24
2023-07-30T19:28:56.705Z,17.87
2023-07-30T19:31:26.651Z,18.25
2023-07-30T19:34:10.977Z,18.12
2023-07-30T19:36:42.394Z,18.24
2023-07-30T19:39:12.432Z,17.99
2023-07-30T19:41:42.343Z,18.09
2023-07-30T19:44:11.880Z,18.13
2023-07-30T19:46:42.309Z,18.21
2023-07-30T19:49:13.273Z,18.25
2023-07-30T19:51:43.580Z,18.20
2023-07-30T19:54:15.473Z,17.94
2023-07-30T19:56:45.300Z,18.02
2023-07-30T19:59:14.913Z,17.95
2023-07-30T20:01:44.820Z,18.00
2023-07-30T20:04:14.545Z,17.94
2023-07-30T20:06:44.672Z,17.85
2023-07-30T20:09:14.407Z,18.30
2023-07-30T20:11:44.544Z,18.20
2023-07-30T20:14:14.281Z,18.20
2023-07-30T20:16:44.118Z,17.87
2023-07-30T20:19:14.016Z,18.05
2023-07-30T20:21:45.190Z,18.09
2023-07-30T20:24:15.030Z,18.15
2023-07-30T20:26:44.878Z,18.25
2023-07-30T20:29:14.693Z,17.92
2023-07-30T20:31:44.860Z,18.09
2023-07-30T20:34:14.730Z,18.09
2023-07-30T20:36:44.562Z,18.18
2023-07-30T20:39:14.387Z,17.80
2023-07-30T20:41:44.219Z,17.79
2023-07-30T20:44:14.057Z,17.66
2023-07-30T20:46:43.876Z,17.97
2023-07-30T20:49:13.728Z,17.69
2023-07-30T20:51:43.561Z,17.86
2023-07-30T20:54:14.200Z,17.73
2023-07-30T20:56:45.764Z,17.68
2023-07-30T20:59:16.014Z,17.92
2023-07-30T21:01:45.864Z,17.74
2023-07-30T21:04:15.692Z,17.64
2023-07-30T21:06:45.515Z,17.39
2023-07-30T21:09:15.703Z,17.39
2023-07-30T21:11:45.823Z,17.45
2023-07-30T21:14:15.668Z,17.45
2023-07-30T21:16:46.576Z,17.46
2023-07-30T21:19:16.415Z,17.10
2023-07-30T21:21:46.251Z,17.10
2023-07-30T21:24:17.014Z,17.37
2023-07-30T21:26:46.821Z,17.44
2023-07-30T21:29:16.950Z,17.30
2023-07-30T21:31:46.857Z,17.41
2023-07-30T21:34:16.709Z,17.45
2023-07-30T21:36:46.544Z,17.10
2023-07-30T21:39:16.373Z,17.10
2023-07-30T21:41:46.213Z,17.27
2023-07-30T21:44:16.018Z,17.27
2023-07-30T21:46:45.891Z,17.19
2023-07-30T21:49:15.709Z,17.07
2023-07-30T21:51:45.550Z,16.97
2023-07-30T21:54:15.441Z,17.04
2023-07-30T21:56:45.272Z,16.98
2023-07-30T21:59:15.116Z,17.06
2023-07-30T22:01:46.842Z,17.07
2023-07-30T22:04:17.482Z,17.12
2023-07-30T22:06:47.166Z,16.85
2023-07-30T22:09:17.214Z,16.93
2023-07-30T22:11:47.334Z,16.94
2023-07-30T22:14:17.120Z,17.10
2023-07-30T22:16:47.283Z,16.95
2023-07-30T22:19:17.070Z,17.22
2023-07-30T22:21:46.896Z,17.03
2023-07-30T22:24:16.740Z,17.10
2023-07-30T22:26:46.582Z,17.05
2023-07-30T22:29:16.137Z,16.72
2023-07-30T22:31:46.316Z,16.75
2023-07-30T22:34:16.445Z,16.73
2023-07-30T22:36:46.296Z,16.73
2023-07-30T22:39:16.488Z,16.57
2023-07-30T22:41:46.334Z,16.57
2023-07-30T22:44:16.147Z,16.61
2023-07-30T22:46:45.759Z,16.55
2023-07-30T22:49:15.641Z,16.62
2023-07-30T22:51:45.473Z,16.78
2023-07-30T22:54:15.302Z,16.81
2023-07-30T22:56:45.128Z,16.79
2023-07-30T22:59:15.266Z,16.71
2023-07-30T23:01:45.158Z,16.88
2023-07-30T23:04:14.730Z,16.88
2023-07-30T23:06:44.572Z,17.03
2023-07-30T23:09:14.396Z,16.96
2023-07-30T23:11:44.512Z,16.88
2023-07-30T23:14:14.414Z,16.89
2023-07-30T23:16:44.696Z,16.90
2023-07-30T23:19:14.857Z,16.88
2023-07-30T23:21:44.745Z,16.88
2023-07-30T23:24:15.383Z,16.88
2023-07-30T23:26:44.956Z,16.91
2023-07-30T23:29:14.787Z,16.97
2023-07-30T23:31:44.428Z,17.04
2023-07-30T23:34:14.254Z,16.86
2023-07-30T23:36:44.086Z,17.10
2023-07-30T23:39:13.929Z,16.89
2023-07-30T23:41:44.429Z,16.90
2023-07-30T23:44:14.256Z,16.96
2023-07-30T23:46:45.734Z,16.93
2023-07-30T23:49:15.284Z,17.15
2023-07-30T23:51:44.794Z,17.16
2023-07-30T23:54:14.335Z,17.19
2023-07-30T23:56:44.450Z,17.27
2023-07-30T23:59:14.288Z,17.53
